sensor_id;sensor_type;location;lat;lon;timestamp;P1;durP1;ratioP1;P2;durP2;ratioP2
75427;SDS011;64008;55.612;37.698;2023-04-29T00:00:29;1.52;;;0.57;;
75427;SDS011;64008;55.612;37.698;2023-04-29T00:02:55;3.17;;;0.80;;
75427;SDS011;64008;55.612;37.698;2023-04-29T00:05:20;1.88;;;0.60;;
75427;SDS011;64008;55.612;37.698;2023-04-29T00:07:46;1.73;;;0.73;;
75427;SDS011;64008;55.612;37.698;2023-04-29T00:10:11;1.73;;;0.60;;
75427;SDS011;64008;55.612;37.698;2023-04-29T00:12:39;3.35;;;0.85;;
75427;SDS011;64008;55.612;37.698;2023-04-29T00:15:05;1.77;;;0.70;;
75427;SDS011;64008;55.612;37.698;2023-04-29T00:17:33;1.58;;;0.57;;
75427;SDS011;64008;55.612;37.698;2023-04-29T00:19:58;2.05;;;0.70;;
75427;SDS011;64008;55.612;37.698;2023-04-29T00:22:24;1.55;;;0.60;;
75427;SDS011;64008;55.612;37.698;2023-04-29T00:24:49;2.80;;;0.65;;
75427;SDS011;64008;55.612;37.698;2023-04-29T00:27:15;2.90;;;0.77;;
75427;SDS011;64008;55.612;37.698;2023-04-29T00:29:41;2.10;;;0.80;;
75427;SDS011;64008;55.612;37.698;2023-04-29T00:32:07;2.90;;;0.70;;
75427;SDS011;64008;55.612;37.698;2023-04-29T00:34:33;1.92;;;0.85;;
75427;SDS011;64008;55.612;37.698;2023-04-29T00:36:58;2.03;;;0.80;;
75427;SDS011;64008;55.612;37.698;2023-04-29T00:39:24;1.92;;;0.57;;
75427;SDS011;64008;55.612;37.698;2023-04-29T00:41:50;1.38;;;0.65;;
75427;SDS011;64008;55.612;37.698;2023-04-29T00:44:16;1.02;;;0.40;;
75427;SDS011;64008;55.612;37.698;2023-04-29T00:46:41;1.70;;;0.68;;
75427;SDS011;64008;55.612;37.698;2023-04-29T00:49:07;2.42;;;0.70;;
75427;SDS011;64008;55.612;37.698;2023-04-29T00:51:35;1.52;;;0.68;;
75427;SDS011;64008;55.612;37.698;2023-04-29T00:54:02;2.17;;;0.70;;
75427;SDS011;64008;55.612;37.698;2023-04-29T00:56:29;1.50;;;0.60;;
75427;SDS011;64008;55.612;37.698;2023-04-29T00:58:56;2.85;;;0.70;;
75427;SDS011;64008;55.612;37.698;2023-04-29T01:01:22;0.77;;;0.43;;
75427;SDS011;64008;55.612;37.698;2023-04-29T01:03:48;1.55;;;0.60;;
75427;SDS011;64008;55.612;37.698;2023-04-29T01:06:19;1.73;;;0.60;;
75427;SDS011;64008;55.612;37.698;2023-04-29T01:11:20;2.28;;;0.77;;
75427;SDS011;64008;55.612;37.698;2023-04-29T01:13:53;1.75;;;0.68;;
75427;SDS011;64008;55.612;37.698;2023-04-29T01:16:33;1.83;;;0.60;;
75427;SDS011;64008;55.612;37.698;2023-04-29T01:19:05;4.55;;;0.70;;
75427;SDS011;64008;55.612;37.698;2023-04-29T01:21:47;4.03;;;0.50;;
75427;SDS011;64008;55.612;37.698;2023-04-29T01:24:13;1.90;;;0.65;;
75427;SDS011;64008;55.612;37.698;2023-04-29T01:31:57;1.42;;;0.65;;
75427;SDS011;64008;55.612;37.698;2023-04-29T01:37:34;1.05;;;0.50;;
75427;SDS011;64008;55.612;37.698;2023-04-29T01:40:11;4.13;;;0.60;;
75427;SDS011;64008;55.612;37.698;2023-04-29T01:42:47;1.85;;;0.60;;
75427;SDS011;64008;55.612;37.698;2023-04-29T01:45:20;2.47;;;0.80;;
75427;SDS011;64008;55.612;37.698;2023-04-29T01:47:47;2.40;;;0.60;;
75427;SDS011;64008;55.612;37.698;2023-04-29T01:50:16;2.40;;;0.70;;
75427;SDS011;64008;55.612;37.698;2023-04-29T01:52:41;2.13;;;0.80;;
75427;SDS011;64008;55.612;37.698;2023-04-29T01:55:07;2.13;;;0.80;;
75427;SDS011;64008;55.612;37.698;2023-04-29T01:57:33;1.67;;;0.60;;
75427;SDS011;64008;55.612;37.698;2023-04-29T01:59:59;2.58;;;0.88;;
75427;SDS011;64008;55.612;37.698;2023-04-29T02:04:51;1.83;;;0.73;;
75427;SDS011;64008;55.612;37.698;2023-04-29T02:07:16;2.25;;;0.80;;
75427;SDS011;64008;55.612;37.698;2023-04-29T02:09:42;2.55;;;0.90;;
75427;SDS011;64008;55.612;37.698;2023-04-29T02:12:08;3.95;;;0.60;;
75427;SDS011;64008;55.612;37.698;2023-04-29T02:14:33;2.90;;;0.90;;
75427;SDS011;64008;55.612;37.698;2023-04-29T02:17:00;1.40;;;0.45;;
75427;SDS011;64008;55.612;37.698;2023-04-29T02:19:25;0.77;;;0.43;;
75427;SDS011;64008;55.612;37.698;2023-04-29T02:21:51;4.28;;;0.40;;
75427;SDS011;64008;55.612;37.698;2023-04-29T02:24:16;1.17;;;0.40;;
75427;SDS011;64008;55.612;37.698;2023-04-29T02:26:42;1.60;;;0.60;;
75427;SDS011;64008;55.612;37.698;2023-04-29T02:29:08;2.05;;;0.50;;
75427;SDS011;64008;55.612;37.698;2023-04-29T02:31:34;2.60;;;0.60;;
75427;SDS011;64008;55.612;37.698;2023-04-29T02:34:00;2.05;;;0.65;;
75427;SDS011;64008;55.612;37.698;2023-04-29T02:36:25;3.20;;;0.70;;
75427;SDS011;64008;55.612;37.698;2023-04-29T02:38:51;1.85;;;0.60;;
75427;SDS011;64008;55.612;37.698;2023-04-29T02:41:19;1.77;;;0.60;;
75427;SDS011;64008;55.612;37.698;2023-04-29T02:43:45;2.85;;;0.60;;
75427;SDS011;64008;55.612;37.698;2023-04-29T02:46:11;1.45;;;0.63;;
75427;SDS011;64008;55.612;37.698;2023-04-29T02:48:36;1.65;;;0.40;;
75427;SDS011;64008;55.612;37.698;2023-04-29T02:51:01;1.73;;;0.40;;
75427;SDS011;64008;55.612;37.698;2023-04-29T02:53:27;2.08;;;0.50;;
75427;SDS011;64008;55.612;37.698;2023-04-29T02:55:53;2.05;;;0.50;;
75427;SDS011;64008;55.612;37.698;2023-04-29T02:58:18;1.83;;;0.63;;
75427;SDS011;64008;55.612;37.698;2023-04-29T03:00:44;1.40;;;0.50;;
75427;SDS011;64008;55.612;37.698;2023-04-29T03:03:09;1.75;;;0.40;;
75427;SDS011;64008;55.612;37.698;2023-04-29T03:05:35;0.80;;;0.40;;
75427;SDS011;64008;55.612;37.698;2023-04-29T03:08:00;1.40;;;0.60;;
75427;SDS011;64008;55.612;37.698;2023-04-29T03:10:26;2.03;;;0.52;;
75427;SDS011;64008;55.612;37.698;2023-04-29T03:12:52;1.75;;;0.55;;
75427;SDS011;64008;55.612;37.698;2023-04-29T03:15:17;0.98;;;0.30;;
75427;SDS011;64008;55.612;37.698;2023-04-29T03:17:43;2.00;;;0.45;;
75427;SDS011;64008;55.612;37.698;2023-04-29T03:20:10;1.15;;;0.35;;
75427;SDS011;64008;55.612;37.698;2023-04-29T03:22:36;1.33;;;0.57;;
75427;SDS011;64008;55.612;37.698;2023-04-29T03:25:02;0.88;;;0.30;;
75427;SDS011;64008;55.612;37.698;2023-04-29T03:27:28;1.02;;;0.40;;
75427;SDS011;64008;55.612;37.698;2023-04-29T03:29:53;2.05;;;0.50;;
75427;SDS011;64008;55.612;37.698;2023-04-29T03:32:19;1.10;;;0.40;;
75427;SDS011;64008;55.612;37.698;2023-04-29T03:34:44;1.77;;;0.40;;
75427;SDS011;64008;55.612;37.698;2023-04-29T03:37:10;1.45;;;0.50;;
75427;SDS011;64008;55.612;37.698;2023-04-29T03:39:35;0.90;;;0.40;;
75427;SDS011;64008;55.612;37.698;2023-04-29T03:42:01;1.88;;;0.50;;
75427;SDS011;64008;55.612;37.698;2023-04-29T03:44:27;1.27;;;0.50;;
75427;SDS011;64008;55.612;37.698;2023-04-29T03:46:53;1.02;;;0.40;;
75427;SDS011;64008;55.612;37.698;2023-04-29T03:49:19;1.00;;;0.40;;
75427;SDS011;64008;55.612;37.698;2023-04-29T03:51:44;2.17;;;0.60;;
75427;SDS011;64008;55.612;37.698;2023-04-29T03:54:10;2.20;;;0.60;;
75427;SDS011;64008;55.612;37.698;2023-04-29T03:59:02;2.10;;;0.60;;
75427;SDS011;64008;55.612;37.698;2023-04-29T04:01:27;1.30;;;0.50;;
75427;SDS011;64008;55.612;37.698;2023-04-29T04:03:53;0.65;;;0.30;;
75427;SDS011;64008;55.612;37.698;2023-04-29T04:06:18;0.65;;;0.30;;
75427;SDS011;64008;55.612;37.698;2023-04-29T04:08:44;1.63;;;0.50;;
75427;SDS011;64008;55.612;37.698;2023-04-29T04:11:09;1.10;;;0.43;;
75427;SDS011;64008;55.612;37.698;2023-04-29T04:13:37;1.52;;;0.70;;
75427;SDS011;64008;55.612;37.698;2023-04-29T04:16:02;1.73;;;0.60;;
75427;SDS011;64008;55.612;37.698;2023-04-29T04:18:28;0.75;;;0.40;;
75427;SDS011;64008;55.612;37.698;2023-04-29T04:20:54;2.75;;;0.60;;
75427;SDS011;64008;55.612;37.698;2023-04-29T04:23:19;1.10;;;0.50;;
75427;SDS011;64008;55.612;37.698;2023-04-29T04:25:46;3.55;;;0.57;;
75427;SDS011;64008;55.612;37.698;2023-04-29T04:28:12;3.28;;;0.70;;
75427;SDS011;64008;55.612;37.698;2023-04-29T04:30:38;1.88;;;0.50;;
75427;SDS011;64008;55.612;37.698;2023-04-29T04:33:03;1.25;;;0.47;;
75427;SDS011;64008;55.612;37.698;2023-04-29T04:35:30;1.95;;;0.80;;
75427;SDS011;64008;55.612;37.698;2023-04-29T04:37:56;1.83;;;0.60;;
75427;SDS011;64008;55.612;37.698;2023-04-29T04:40:21;2.10;;;0.50;;
75427;SDS011;64008;55.612;37.698;2023-04-29T04:42:47;5.22;;;0.75;;
75427;SDS011;64008;55.612;37.698;2023-04-29T04:45:12;1.45;;;0.50;;
75427;SDS011;64008;55.612;37.698;2023-04-29T04:47:41;2.70;;;0.80;;
75427;SDS011;64008;55.612;37.698;2023-04-29T04:50:07;1.05;;;0.52;;
75427;SDS011;64008;55.612;37.698;2023-04-29T04:52:33;1.77;;;0.60;;
75427;SDS011;64008;55.612;37.698;2023-04-29T04:54:58;1.65;;;0.50;;
75427;SDS011;64008;55.612;37.698;2023-04-29T04:57:24;4.07;;;0.73;;
75427;SDS011;64008;55.612;37.698;2023-04-29T04:59:50;2.88;;;0.50;;
75427;SDS011;64008;55.612;37.698;2023-04-29T05:02:15;2.92;;;0.60;;
75427;SDS011;64008;55.612;37.698;2023-04-29T05:04:41;4.07;;;0.70;;
75427;SDS011;64008;55.612;37.698;2023-04-29T05:07:06;2.15;;;0.70;;
75427;SDS011;64008;55.612;37.698;2023-04-29T05:09:32;1.50;;;0.52;;
75427;SDS011;64008;55.612;37.698;2023-04-29T05:11:57;2.08;;;0.70;;
75427;SDS011;64008;55.612;37.698;2023-04-29T05:14:24;3.67;;;1.30;;
75427;SDS011;64008;55.612;37.698;2023-04-29T05:16:50;2.13;;;0.70;;
75427;SDS011;64008;55.612;37.698;2023-04-29T05:19:17;4.82;;;1.80;;
75427;SDS011;64008;55.612;37.698;2023-04-29T05:21:43;2.45;;;0.80;;
75427;SDS011;64008;55.612;37.698;2023-04-29T05:24:08;3.78;;;0.80;;
75427;SDS011;64008;55.612;37.698;2023-04-29T05:26:34;2.42;;;0.70;;
75427;SDS011;64008;55.612;37.698;2023-04-29T05:29:00;2.53;;;0.65;;
75427;SDS011;64008;55.612;37.698;2023-04-29T05:31:25;2.63;;;0.80;;
75427;SDS011;64008;55.612;37.698;2023-04-29T05:33:52;2.40;;;0.80;;
75427;SDS011;64008;55.612;37.698;2023-04-29T05:36:17;2.55;;;0.82;;
75427;SDS011;64008;55.612;37.698;2023-04-29T05:38:43;2.05;;;0.85;;
75427;SDS011;64008;55.612;37.698;2023-04-29T05:41:09;3.97;;;1.30;;
75427;SDS011;64008;55.612;37.698;2023-04-29T05:43:35;3.22;;;0.80;;
75427;SDS011;64008;55.612;37.698;2023-04-29T05:46:00;2.88;;;0.90;;
75427;SDS011;64008;55.612;37.698;2023-04-29T05:48:26;2.80;;;1.08;;
75427;SDS011;64008;55.612;37.698;2023-04-29T05:50:53;3.80;;;0.85;;
75427;SDS011;64008;55.612;37.698;2023-04-29T05:53:18;3.58;;;1.83;;
75427;SDS011;64008;55.612;37.698;2023-04-29T05:55:44;4.35;;;0.90;;
75427;SDS011;64008;55.612;37.698;2023-04-29T05:58:11;3.67;;;1.00;;
75427;SDS011;64008;55.612;37.698;2023-04-29T06:00:37;3.83;;;0.80;;
75427;SDS011;64008;55.612;37.698;2023-04-29T06:03:03;4.53;;;0.93;;
75427;SDS011;64008;55.612;37.698;2023-04-29T06:05:28;3.20;;;1.05;;
75427;SDS011;64008;55.612;37.698;2023-04-29T06:07:54;7.15;;;1.17;;
75427;SDS011;64008;55.612;37.698;2023-04-29T06:10:20;4.40;;;1.35;;
75427;SDS011;64008;55.612;37.698;2023-04-29T06:12:45;2.55;;;0.70;;
75427;SDS011;64008;55.612;37.698;2023-04-29T06:15:13;2.75;;;1.02;;
75427;SDS011;64008;55.612;37.698;2023-04-29T06:17:38;3.95;;;0.90;;
75427;SDS011;64008;55.612;37.698;2023-04-29T06:20:04;4.53;;;1.13;;
75427;SDS011;64008;55.612;37.698;2023-04-29T06:22:30;2.63;;;0.90;;
75427;SDS011;64008;55.612;37.698;2023-04-29T06:24:56;2.35;;;0.85;;
75427;SDS011;64008;55.612;37.698;2023-04-29T06:27:21;2.97;;;0.82;;
75427;SDS011;64008;55.612;37.698;2023-04-29T06:29:47;2.90;;;0.90;;
75427;SDS011;64008;55.612;37.698;2023-04-29T06:32:12;5.15;;;1.17;;
75427;SDS011;64008;55.612;37.698;2023-04-29T06:34:38;2.95;;;0.80;;
75427;SDS011;64008;55.612;37.698;2023-04-29T06:37:04;2.42;;;0.90;;
75427;SDS011;64008;55.612;37.698;2023-04-29T06:39:29;4.28;;;1.45;;
75427;SDS011;64008;55.612;37.698;2023-04-29T06:41:55;2.75;;;1.05;;
75427;SDS011;64008;55.612;37.698;2023-04-29T06:44:22;2.30;;;0.73;;
75427;SDS011;64008;55.612;37.698;2023-04-29T06:46:48;5.93;;;1.27;;
75427;SDS011;64008;55.612;37.698;2023-04-29T06:49:14;4.60;;;1.17;;
75427;SDS011;64008;55.612;37.698;2023-04-29T06:51:40;4.03;;;1.20;;
75427;SDS011;64008;55.612;37.698;2023-04-29T06:54:06;3.30;;;1.05;;
75427;SDS011;64008;55.612;37.698;2023-04-29T06:56:32;5.45;;;0.85;;
75427;SDS011;64008;55.612;37.698;2023-04-29T06:58:58;3.13;;;1.15;;
75427;SDS011;64008;55.612;37.698;2023-04-29T07:01:23;2.90;;;1.00;;
75427;SDS011;64008;55.612;37.698;2023-04-29T07:03:49;3.10;;;1.10;;
75427;SDS011;64008;55.612;37.698;2023-04-29T07:06:14;4.78;;;1.08;;
75427;SDS011;64008;55.612;37.698;2023-04-29T07:08:40;3.50;;;1.20;;
75427;SDS011;64008;55.612;37.698;2023-04-29T07:11:05;3.03;;;1.20;;
75427;SDS011;64008;55.612;37.698;2023-04-29T07:13:31;3.83;;;1.65;;
75427;SDS011;64008;55.612;37.698;2023-04-29T07:15:56;3.35;;;1.50;;
75427;SDS011;64008;55.612;37.698;2023-04-29T07:18:22;4.75;;;1.30;;
75427;SDS011;64008;55.612;37.698;2023-04-29T07:20:47;3.60;;;1.30;;
75427;SDS011;64008;55.612;37.698;2023-04-29T07:23:15;4.00;;;1.40;;
75427;SDS011;64008;55.612;37.698;2023-04-29T07:25:40;4.20;;;1.30;;
75427;SDS011;64008;55.612;37.698;2023-04-29T07:28:06;6.00;;;1.50;;
75427;SDS011;64008;55.612;37.698;2023-04-29T07:30:34;3.33;;;1.35;;
75427;SDS011;64008;55.612;37.698;2023-04-29T07:33:00;3.92;;;1.50;;
75427;SDS011;64008;55.612;37.698;2023-04-29T07:35:26;3.53;;;1.30;;
75427;SDS011;64008;55.612;37.698;2023-04-29T07:37:51;2.83;;;1.05;;
75427;SDS011;64008;55.612;37.698;2023-04-29T07:40:17;3.28;;;1.27;;
75427;SDS011;64008;55.612;37.698;2023-04-29T07:42:42;4.82;;;1.20;;
75427;SDS011;64008;55.612;37.698;2023-04-29T07:45:08;4.57;;;1.20;;
75427;SDS011;64008;55.612;37.698;2023-04-29T07:47:34;3.20;;;1.02;;
75427;SDS011;64008;55.612;37.698;2023-04-29T07:50:00;2.92;;;1.05;;
75427;SDS011;64008;55.612;37.698;2023-04-29T07:52:26;8.88;;;1.10;;
75427;SDS011;64008;55.612;37.698;2023-04-29T07:54:51;5.40;;;1.00;;
75427;SDS011;64008;55.612;37.698;2023-04-29T07:57:20;4.50;;;1.23;;
75427;SDS011;64008;55.612;37.698;2023-04-29T07:59:45;8.98;;;1.65;;
75427;SDS011;64008;55.612;37.698;2023-04-29T08:02:11;7.75;;;1.35;;
75427;SDS011;64008;55.612;37.698;2023-04-29T08:04:38;4.40;;;1.30;;
75427;SDS011;64008;55.612;37.698;2023-04-29T08:07:05;6.32;;;1.73;;
75427;SDS011;64008;55.612;37.698;2023-04-29T08:09:31;12.18;;;1.58;;
75427;SDS011;64008;55.612;37.698;2023-04-29T08:11:56;3.75;;;1.23;;
75427;SDS011;64008;55.612;37.698;2023-04-29T08:14:22;3.38;;;1.40;;
75427;SDS011;64008;55.612;37.698;2023-04-29T08:16:47;6.25;;;1.35;;
75427;SDS011;64008;55.612;37.698;2023-04-29T08:19:13;4.40;;;1.83;;
75427;SDS011;64008;55.612;37.698;2023-04-29T08:21:38;7.10;;;1.40;;
75427;SDS011;64008;55.612;37.698;2023-04-29T08:24:04;5.75;;;1.30;;
75427;SDS011;64008;55.612;37.698;2023-04-29T08:26:30;4.50;;;1.33;;
75427;SDS011;64008;55.612;37.698;2023-04-29T08:28:55;5.65;;;1.20;;
75427;SDS011;64008;55.612;37.698;2023-04-29T08:31:21;3.95;;;1.20;;
75427;SDS011;64008;55.612;37.698;2023-04-29T08:33:47;5.25;;;1.70;;
75427;SDS011;64008;55.612;37.698;2023-04-29T08:36:13;5.85;;;1.80;;
75427;SDS011;64008;55.612;37.698;2023-04-29T08:38:40;4.53;;;1.55;;
75427;SDS011;64008;55.612;37.698;2023-04-29T08:41:08;4.03;;;1.25;;
75427;SDS011;64008;55.612;37.698;2023-04-29T08:43:34;5.75;;;1.23;;
75427;SDS011;64008;55.612;37.698;2023-04-29T08:46:06;4.68;;;1.30;;
75427;SDS011;64008;55.612;37.698;2023-04-29T08:48:32;5.43;;;1.42;;
75427;SDS011;64008;55.612;37.698;2023-04-29T08:50:58;4.45;;;1.08;;
75427;SDS011;64008;55.612;37.698;2023-04-29T08:53:25;6.07;;;1.40;;
75427;SDS011;64008;55.612;37.698;2023-04-29T08:55:51;5.45;;;1.45;;
75427;SDS011;64008;55.612;37.698;2023-04-29T08:58:18;3.47;;;1.00;;
75427;SDS011;64008;55.612;37.698;2023-04-29T09:00:44;4.38;;;1.40;;
75427;SDS011;64008;55.612;37.698;2023-04-29T09:03:26;4.85;;;1.00;;
75427;SDS011;64008;55.612;37.698;2023-04-29T09:06:01;2.95;;;1.10;;
75427;SDS011;64008;55.612;37.698;2023-04-29T09:08:28;6.25;;;1.83;;
75427;SDS011;64008;55.612;37.698;2023-04-29T09:10:54;5.10;;;1.20;;
75427;SDS011;64008;55.612;37.698;2023-04-29T09:15:53;4.85;;;1.27;;
75427;SDS011;64008;55.612;37.698;2023-04-29T09:21:19;3.38;;;0.88;;
75427;SDS011;64008;55.612;37.698;2023-04-29T09:23:53;4.13;;;1.05;;
75427;SDS011;64008;55.612;37.698;2023-04-29T09:26:20;4.07;;;0.95;;
75427;SDS011;64008;55.612;37.698;2023-04-29T09:28:46;3.13;;;1.30;;
75427;SDS011;64008;55.612;37.698;2023-04-29T09:31:13;3.72;;;1.10;;
75427;SDS011;64008;55.612;37.698;2023-04-29T09:33:52;3.03;;;0.90;;
75427;SDS011;64008;55.612;37.698;2023-04-29T09:39:04;4.20;;;1.10;;
75427;SDS011;64008;55.612;37.698;2023-04-29T09:41:36;3.38;;;1.00;;
75427;SDS011;64008;55.612;37.698;2023-04-29T09:44:29;3.00;;;1.20;;
75427;SDS011;64008;55.612;37.698;2023-04-29T09:47:01;3.10;;;1.20;;
75427;SDS011;64008;55.612;37.698;2023-04-29T09:49:32;7.18;;;1.20;;
75427;SDS011;64008;55.612;37.698;2023-04-29T09:52:06;5.85;;;1.27;;
75427;SDS011;64008;55.612;37.698;2023-04-29T09:54:35;5.22;;;1.35;;
75427;SDS011;64008;55.612;37.698;2023-04-29T09:57:03;4.18;;;1.10;;
75427;SDS011;64008;55.612;37.698;2023-04-29T09:59:39;3.95;;;1.13;;
75427;SDS011;64008;55.612;37.698;2023-04-29T10:02:06;3.95;;;1.05;;
75427;SDS011;64008;55.612;37.698;2023-04-29T10:04:38;4.88;;;1.10;;
75427;SDS011;64008;55.612;37.698;2023-04-29T10:07:05;3.05;;;0.82;;
75427;SDS011;64008;55.612;37.698;2023-04-29T10:09:32;4.35;;;1.10;;
75427;SDS011;64008;55.612;37.698;2023-04-29T10:11:59;5.65;;;0.98;;
75427;SDS011;64008;55.612;37.698;2023-04-29T10:14:26;4.10;;;1.25;;
75427;SDS011;64008;55.612;37.698;2023-04-29T10:17:02;7.20;;;1.40;;
75427;SDS011;64008;55.612;37.698;2023-04-29T10:19:57;5.25;;;1.30;;
75427;SDS011;64008;55.612;37.698;2023-04-29T10:22:34;8.93;;;1.25;;
75427;SDS011;64008;55.612;37.698;2023-04-29T10:25:06;8.05;;;1.30;;
75427;SDS011;64008;55.612;37.698;2023-04-29T10:27:35;5.53;;;1.10;;
75427;SDS011;64008;55.612;37.698;2023-04-29T10:30:01;4.20;;;1.02;;
75427;SDS011;64008;55.612;37.698;2023-04-29T10:32:29;4.15;;;1.23;;
75427;SDS011;64008;55.612;37.698;2023-04-29T10:34:56;2.53;;;0.85;;
75427;SDS011;64008;55.612;37.698;2023-04-29T10:37:23;5.05;;;1.10;;
75427;SDS011;64008;55.612;37.698;2023-04-29T10:39:49;5.18;;;1.30;;
75427;SDS011;64008;55.612;37.698;2023-04-29T10:42:30;3.63;;;1.00;;
75427;SDS011;64008;55.612;37.698;2023-04-29T10:50:27;7.80;;;1.80;;
75427;SDS011;64008;55.612;37.698;2023-04-29T10:52:53;6.47;;;1.60;;
75427;SDS011;64008;55.612;37.698;2023-04-29T10:57:46;6.65;;;1.50;;
75427;SDS011;64008;55.612;37.698;2023-04-29T11:00:21;3.17;;;1.33;;
75427;SDS011;64008;55.612;37.698;2023-04-29T11:02:52;4.20;;;1.30;;
75427;SDS011;64008;55.612;37.698;2023-04-29T11:10:51;3.47;;;1.10;;
75427;SDS011;64008;55.612;37.698;2023-04-29T11:15:46;4.95;;;1.40;;
75427;SDS011;64008;55.612;37.698;2023-04-29T11:18:12;4.50;;;1.58;;
75427;SDS011;64008;55.612;37.698;2023-04-29T11:23:38;5.35;;;1.67;;
75427;SDS011;64008;55.612;37.698;2023-04-29T11:26:09;6.65;;;1.30;;
75427;SDS011;64008;55.612;37.698;2023-04-29T11:28:35;6.90;;;3.38;;
75427;SDS011;64008;55.612;37.698;2023-04-29T11:31:00;3.95;;;1.48;;
75427;SDS011;64008;55.612;37.698;2023-04-29T11:33:30;3.95;;;1.30;;
75427;SDS011;64008;55.612;37.698;2023-04-29T11:35:56;4.03;;;1.20;;
75427;SDS011;64008;55.612;37.698;2023-04-29T11:38:28;3.85;;;1.50;;
75427;SDS011;64008;55.612;37.698;2023-04-29T11:40:58;6.07;;;1.65;;
75427;SDS011;64008;55.612;37.698;2023-04-29T11:43:24;4.05;;;1.50;;
75427;SDS011;64008;55.612;37.698;2023-04-29T11:45:50;5.75;;;2.88;;
75427;SDS011;64008;55.612;37.698;2023-04-29T11:48:24;4.57;;;1.52;;
75427;SDS011;64008;55.612;37.698;2023-04-29T11:50:56;4.47;;;1.55;;
75427;SDS011;64008;55.612;37.698;2023-04-29T11:53:24;6.65;;;1.33;;
75427;SDS011;64008;55.612;37.698;2023-04-29T11:55:52;7.50;;;1.60;;
75427;SDS011;64008;55.612;37.698;2023-04-29T11:58:21;5.78;;;1.88;;
75427;SDS011;64008;55.612;37.698;2023-04-29T12:00:47;3.88;;;1.40;;
75427;SDS011;64008;55.612;37.698;2023-04-29T12:03:14;5.95;;;1.50;;
75427;SDS011;64008;55.612;37.698;2023-04-29T12:08:19;4.20;;;1.25;;
75427;SDS011;64008;55.612;37.698;2023-04-29T12:10:46;7.72;;;1.42;;
75427;SDS011;64008;55.612;37.698;2023-04-29T12:13:12;5.85;;;1.40;;
75427;SDS011;64008;55.612;37.698;2023-04-29T12:15:38;6.72;;;1.40;;
75427;SDS011;64008;55.612;37.698;2023-04-29T12:18:04;4.00;;;1.40;;
75427;SDS011;64008;55.612;37.698;2023-04-29T12:20:30;5.85;;;1.50;;
75427;SDS011;64008;55.612;37.698;2023-04-29T12:22:56;6.80;;;1.30;;
75427;SDS011;64008;55.612;37.698;2023-04-29T12:25:51;6.80;;;1.85;;
75427;SDS011;64008;55.612;37.698;2023-04-29T12:28:24;4.57;;;1.83;;
75427;SDS011;64008;55.612;37.698;2023-04-29T12:30:50;6.72;;;2.20;;
75427;SDS011;64008;55.612;37.698;2023-04-29T12:33:21;4.80;;;2.30;;
75427;SDS011;64008;55.612;37.698;2023-04-29T12:35:49;4.35;;;1.90;;
75427;SDS011;64008;55.612;37.698;2023-04-29T12:38:19;7.03;;;1.90;;
75427;SDS011;64008;55.612;37.698;2023-04-29T12:40:45;5.28;;;1.70;;
75427;SDS011;64008;55.612;37.698;2023-04-29T12:43:11;10.43;;;1.80;;
75427;SDS011;64008;55.612;37.698;2023-04-29T12:45:37;8.98;;;1.70;;
75427;SDS011;64008;55.612;37.698;2023-04-29T12:48:04;8.70;;;1.50;;
75427;SDS011;64008;55.612;37.698;2023-04-29T12:50:33;3.92;;;1.33;;
75427;SDS011;64008;55.612;37.698;2023-04-29T12:53:03;7.47;;;1.60;;
75427;SDS011;64008;55.612;37.698;2023-04-29T12:55:34;8.32;;;3.17;;
75427;SDS011;64008;55.612;37.698;2023-04-29T12:58:03;14.90;;;6.88;;
75427;SDS011;64008;55.612;37.698;2023-04-29T13:00:30;14.68;;;7.10;;
75427;SDS011;64008;55.612;37.698;2023-04-29T13:05:21;7.45;;;3.30;;
75427;SDS011;64008;55.612;37.698;2023-04-29T13:07:47;7.22;;;3.13;;
75427;SDS011;64008;55.612;37.698;2023-04-29T13:10:13;7.18;;;2.53;;
75427;SDS011;64008;55.612;37.698;2023-04-29T13:12:39;6.18;;;2.42;;
75427;SDS011;64008;55.612;37.698;2023-04-29T13:15:05;6.15;;;2.47;;
75427;SDS011;64008;55.612;37.698;2023-04-29T13:17:34;6.13;;;2.20;;
75427;SDS011;64008;55.612;37.698;2023-04-29T13:20:01;6.70;;;2.60;;
75427;SDS011;64008;55.612;37.698;2023-04-29T13:22:30;6.40;;;2.10;;
75427;SDS011;64008;55.612;37.698;2023-04-29T13:24:56;6.55;;;2.28;;
75427;SDS011;64008;55.612;37.698;2023-04-29T13:27:22;5.13;;;2.28;;
75427;SDS011;64008;55.612;37.698;2023-04-29T13:29:47;4.95;;;2.20;;
75427;SDS011;64008;55.612;37.698;2023-04-29T13:32:13;5.03;;;1.83;;
75427;SDS011;64008;55.612;37.698;2023-04-29T13:34:39;7.65;;;1.70;;
75427;SDS011;64008;55.612;37.698;2023-04-29T13:37:07;5.45;;;1.90;;
75427;SDS011;64008;55.612;37.698;2023-04-29T13:39:33;4.03;;;1.60;;
75427;SDS011;64008;55.612;37.698;2023-04-29T13:41:59;4.32;;;1.60;;
75427;SDS011;64008;55.612;37.698;2023-04-29T13:44:24;4.57;;;1.80;;
75427;SDS011;64008;55.612;37.698;2023-04-29T13:46:50;5.22;;;1.52;;
75427;SDS011;64008;55.612;37.698;2023-04-29T13:49:16;5.20;;;1.65;;
75427;SDS011;64008;55.612;37.698;2023-04-29T13:51:41;4.25;;;1.70;;
75427;SDS011;64008;55.612;37.698;2023-04-29T13:54:07;4.60;;;1.90;;
75427;SDS011;64008;55.612;37.698;2023-04-29T13:56:32;4.47;;;1.73;;
75427;SDS011;64008;55.612;37.698;2023-04-29T13:58:58;5.20;;;1.50;;
75427;SDS011;64008;55.612;37.698;2023-04-29T14:01:23;5.25;;;1.67;;
75427;SDS011;64008;55.612;37.698;2023-04-29T14:03:49;6.38;;;1.88;;
75427;SDS011;64008;55.612;37.698;2023-04-29T14:06:14;11.20;;;2.10;;
75427;SDS011;64008;55.612;37.698;2023-04-29T14:08:40;5.30;;;1.77;;
75427;SDS011;64008;55.612;37.698;2023-04-29T14:11:05;5.55;;;1.83;;
75427;SDS011;64008;55.612;37.698;2023-04-29T14:13:31;3.67;;;1.40;;
75427;SDS011;64008;55.612;37.698;2023-04-29T14:15:56;5.38;;;1.83;;
75427;SDS011;64008;55.612;37.698;2023-04-29T14:18:23;3.88;;;1.77;;
75427;SDS011;64008;55.612;37.698;2023-04-29T14:20:49;5.22;;;1.80;;
75427;SDS011;64008;55.612;37.698;2023-04-29T14:23:15;4.28;;;1.88;;
75427;SDS011;64008;55.612;37.698;2023-04-29T14:25:40;5.32;;;1.52;;
75427;SDS011;64008;55.612;37.698;2023-04-29T14:28:06;6.78;;;1.55;;
75427;SDS011;64008;55.612;37.698;2023-04-29T14:32:57;2.87;;;1.10;;
75427;SDS011;64008;55.612;37.698;2023-04-29T14:35:23;3.88;;;1.27;;
75427;SDS011;64008;55.612;37.698;2023-04-29T14:37:49;6.65;;;1.90;;
75427;SDS011;64008;55.612;37.698;2023-04-29T14:40:14;5.70;;;1.30;;
75427;SDS011;64008;55.612;37.698;2023-04-29T14:42:40;4.97;;;1.40;;
75427;SDS011;64008;55.612;37.698;2023-04-29T14:45:05;4.20;;;1.23;;
75427;SDS011;64008;55.612;37.698;2023-04-29T14:47:32;3.92;;;1.30;;
75427;SDS011;64008;55.612;37.698;2023-04-29T14:49:57;4.15;;;1.23;;
75427;SDS011;64008;55.612;37.698;2023-04-29T14:52:23;4.80;;;1.38;;
75427;SDS011;64008;55.612;37.698;2023-04-29T14:54:48;5.63;;;1.50;;
75427;SDS011;64008;55.612;37.698;2023-04-29T14:57:14;5.90;;;1.13;;
75427;SDS011;64008;55.612;37.698;2023-04-29T14:59:39;19.27;;;1.60;;
75427;SDS011;64008;55.612;37.698;2023-04-29T15:02:05;6.18;;;1.50;;
75427;SDS011;64008;55.612;37.698;2023-04-29T15:04:31;3.90;;;1.20;;
75427;SDS011;64008;55.612;37.698;2023-04-29T15:06:57;5.32;;;1.30;;
75427;SDS011;64008;55.612;37.698;2023-04-29T15:09:22;3.45;;;1.17;;
75427;SDS011;64008;55.612;37.698;2023-04-29T15:14:14;4.70;;;1.38;;
75427;SDS011;64008;55.612;37.698;2023-04-29T15:16:39;5.63;;;1.52;;
75427;SDS011;64008;55.612;37.698;2023-04-29T15:19:05;3.45;;;1.17;;
75427;SDS011;64008;55.612;37.698;2023-04-29T15:21:30;4.32;;;1.20;;
75427;SDS011;64008;55.612;37.698;2023-04-29T15:23:56;3.17;;;1.02;;